createdAt,value
2022-09-06T00:04:22.642Z,18.42
2022-09-06T00:24:22.605Z,18.41
2022-09-06T00:44:22.532Z,18.39
2022-09-06T01:04:22.523Z,18.38
2022-09-06T01:24:22.531Z,18.37
2022-09-06T01:44:22.463Z,18.36
2022-09-06T02:04:22.422Z,18.36
2022-09-06T02:24:22.409Z,18.35
2022-09-06T02:44:22.387Z,18.33
2022-09-06T03:04:22.340Z,18.3
2022-09-06T03:24:22.301Z,18.27
2022-09-06T03:44:22.275Z,18.27
2022-09-06T04:04:22.243Z,18.26
2022-09-06T04:24:22.202Z,18.26
2022-09-06T04:44:22.181Z,18.25
2022-09-06T05:04:22.204Z,18.23
2022-09-06T05:24:22.123Z,18.2
2022-09-06T05:44:21.451Z,18.18
2022-09-06T06:04:22.027Z,18.17
2022-09-06T06:24:22.033Z,18.16
2022-09-06T06:44:21.718Z,18.16
2022-09-06T07:04:21.963Z,18.16
2022-09-06T08:24:21.857Z,18.11
2022-09-06T09:04:21.752Z,18.08
2022-09-06T10:04:53.240Z,18.06
2022-09-06T10:44:21.603Z,18.06
2022-09-06T11:04:21.566Z,18.06
2022-09-06T11:24:21.554Z,18.06
2022-09-06T11:44:21.535Z,18.06
2022-09-06T12:04:21.502Z,18.06
2022-09-06T12:24:21.487Z,18.06
2022-09-06T12:44:21.455Z,18.07
2022-09-06T13:04:21.426Z,18.08
2022-09-06T13:24:21.414Z,18.12
2022-09-06T13:44:21.393Z,18.15
2022-09-06T14:24:21.338Z,18.19
2022-09-06T15:04:21.301Z,18.26
2022-09-06T16:24:21.222Z,18.42
2022-09-06T18:04:21.110Z,18.63
2022-09-06T18:24:21.010Z,18.67
2022-09-06T19:04:20.944Z,18.73
2022-09-06T19:44:20.915Z,18.77
2022-09-06T20:04:20.863Z,18.78
2022-09-06T20:24:20.826Z,18.79
2022-09-06T21:04:20.779Z,18.83
2022-09-06T21:24:20.790Z,18.84
2022-09-06T21:44:20.432Z,18.84
2022-09-06T22:24:20.637Z,18.83
2022-09-06T22:44:20.611Z,18.82
2022-09-06T23:04:20.621Z,18.81
2022-09-06T23:24:20.549Z,18.8
2022-09-06T23:44:20.563Z,18.78
